createdAt,value
2023-01-31T00:00:12.483Z,62.84
2023-01-31T00:02:42.814Z,62.94
2023-01-31T00:05:10.794Z,62.89
2023-01-31T00:07:38.752Z,63.08
2023-01-31T00:10:07.525Z,63.05
2023-01-31T00:12:35.978Z,62.88
2023-01-31T00:15:04.740Z,63.14
2023-01-31T00:17:33.034Z,63.18
2023-01-31T00:20:01.056Z,63.31
2023-01-31T00:22:29.632Z,63.51
2023-01-31T00:24:57.793Z,63.45
2023-01-31T00:27:25.830Z,63.56
2023-01-31T00:29:54.657Z,63.91
2023-01-31T00:32:22.799Z,64.15
2023-01-31T00:34:55.516Z,64.30
2023-01-31T00:37:23.929Z,64.36
2023-01-31T00:39:53.333Z,64.28
2023-01-31T00:42:21.273Z,64.30
2023-01-31T00:44:49.602Z,64.31
2023-01-31T00:47:18.849Z,64.45
2023-01-31T00:49:47.089Z,64.34
2023-01-31T00:52:15.239Z,64.28
2023-01-31T00:54:43.229Z,64.16
2023-01-31T00:57:11.261Z,64.26
2023-01-31T00:59:39.296Z,64.24
2023-01-31T01:02:07.492Z,64.30
2023-01-31T01:04:35.608Z,64.51
2023-01-31T01:07:03.643Z,64.61
2023-01-31T01:09:34.954Z,64.54
2023-01-31T01:12:03.597Z,64.38
2023-01-31T01:14:32.138Z,64.16
2023-01-31T01:17:00.765Z,63.98
2023-01-31T01:19:28.810Z,63.78
2023-01-31T01:21:56.888Z,63.97
2023-01-31T01:24:25.540Z,64.16
2023-01-31T01:26:53.638Z,64.45
2023-01-31T01:29:21.780Z,64.40
2023-01-31T01:31:51.163Z,64.18
2023-01-31T01:34:20.175Z,64.06
2023-01-31T01:36:48.306Z,64.01
2023-01-31T01:39:18.288Z,64.19
2023-01-31T01:41:47.052Z,64.15
2023-01-31T01:44:42.557Z,63.92
2023-01-31T01:47:50.144Z,63.89
2023-01-31T01:50:27.618Z,63.99
2023-01-31T01:53:01.401Z,63.90
2023-01-31T01:55:42.931Z,63.74
2023-01-31T01:58:19.518Z,63.68
2023-01-31T02:00:47.709Z,63.29
2023-01-31T02:03:15.893Z,63.20
2023-01-31T02:05:49.538Z,63.01
2023-01-31T02:08:19.382Z,62.91
2023-01-31T02:10:56.707Z,62.76
2023-01-31T02:13:24.929Z,62.67
2023-01-31T02:15:53.172Z,62.48
2023-01-31T02:18:22.424Z,62.39
2023-01-31T02:21:30.183Z,62.38
2023-01-31T02:24:13.573Z,62.12
2023-01-31T02:27:10.992Z,61.89
2023-01-31T02:30:13.972Z,61.76
2023-01-31T02:32:49.753Z,61.73
2023-01-31T02:35:39.395Z,61.94
2023-01-31T02:38:31.983Z,62.24
2023-01-31T02:41:10.252Z,62.54
2023-01-31T02:44:09.165Z,62.66
2023-01-31T02:46:55.909Z,62.94
2023-01-31T02:49:37.377Z,63.22
2023-01-31T02:52:35.540Z,63.27
2023-01-31T02:55:43.364Z,62.99
2023-01-31T02:58:12.668Z,63.25
2023-01-31T03:00:42.237Z,63.18
2023-01-31T03:03:32.012Z,63.13
2023-01-31T03:06:23.454Z,63.02
2023-01-31T03:09:05.900Z,63.01
2023-01-31T03:11:55.759Z,62.99
2023-01-31T03:14:44.477Z,62.83
2023-01-31T03:17:33.999Z,62.88
2023-01-31T03:20:08.570Z,62.73
2023-01-31T03:22:46.171Z,62.65
2023-01-31T03:25:15.509Z,62.45
2023-01-31T03:27:49.165Z,62.52
2023-01-31T03:30:21.302Z,62.60
2023-01-31T03:32:56.192Z,62.73
2023-01-31T03:35:26.099Z,62.90
2023-01-31T03:38:02.213Z,62.83
2023-01-31T03:40:37.309Z,62.65
2023-01-31T03:43:09.562Z,62.78
2023-01-31T03:45:42.960Z,62.54
2023-01-31T03:48:15.238Z,62.65
2023-01-31T03:50:47.579Z,62.74
2023-01-31T03:53:36.988Z,63.22
2023-01-31T03:56:09.656Z,63.64
2023-01-31T03:58:41.275Z,64.22
2023-01-31T04:01:09.495Z,64.48
2023-01-31T04:03:42.760Z,64.93
2023-01-31T04:06:10.947Z,65.37
2023-01-31T04:08:39.953Z,65.76
2023-01-31T04:11:11.744Z,65.92
2023-01-31T04:13:40.119Z,66.28
2023-01-31T04:16:08.279Z,66.53
2023-01-31T04:18:38.079Z,66.76
2023-01-31T04:21:06.698Z,66.93
2023-01-31T04:23:34.684Z,66.98
2023-01-31T04:26:03.532Z,66.94
2023-01-31T04:28:32.126Z,66.97
2023-01-31T04:31:00.374Z,66.83
2023-01-31T04:33:30.496Z,66.58
2023-01-31T04:35:58.883Z,66.67
2023-01-31T04:38:26.950Z,66.65
2023-01-31T04:40:55.635Z,66.50
2023-01-31T04:43:24.212Z,66.41
2023-01-31T04:45:52.263Z,66.48
2023-01-31T04:48:20.342Z,66.12
2023-01-31T04:50:49.088Z,66.18
2023-01-31T04:53:17.016Z,66.04
2023-01-31T04:55:46.845Z,65.80
2023-01-31T04:58:14.828Z,65.83
2023-01-31T05:00:45.092Z,65.69
2023-01-31T05:03:13.418Z,65.72
2023-01-31T05:05:41.672Z,65.72
2023-01-31T05:08:09.842Z,65.76
2023-01-31T05:10:37.871Z,65.81
2023-01-31T05:13:06.350Z,65.82
2023-01-31T05:15:34.440Z,65.77
2023-01-31T05:18:03.077Z,65.84
2023-01-31T05:20:33.903Z,65.68
2023-01-31T05:23:02.677Z,65.63
2023-01-31T05:25:31.625Z,65.65
2023-01-31T05:28:00.359Z,65.72
2023-01-31T05:30:28.440Z,65.77
2023-01-31T05:32:57.219Z,65.92
2023-01-31T05:35:25.490Z,65.99
2023-01-31T05:37:54.580Z,65.82
2023-01-31T05:40:23.688Z,65.71
2023-01-31T05:42:58.087Z,65.66
2023-01-31T05:45:26.031Z,65.65
2023-01-31T05:47:54.108Z,65.80
2023-01-31T05:50:22.313Z,65.83
2023-01-31T05:52:51.176Z,65.85
2023-01-31T05:55:19.316Z,65.82
2023-01-31T05:57:47.472Z,65.83
2023-01-31T06:00:15.850Z,65.97
2023-01-31T06:02:43.785Z,66.21
2023-01-31T06:05:14.031Z,66.24
2023-01-31T06:07:42.545Z,66.39
2023-01-31T06:10:11.468Z,66.29
2023-01-31T06:12:39.451Z,66.29
2023-01-31T08:26:30.681Z,68.13
2023-01-31T08:29:00.322Z,67.63
2023-01-31T08:31:28.636Z,67.38
2023-01-31T08:33:57.531Z,67.27
2023-01-31T08:36:31.937Z,66.99
2023-01-31T08:39:00.369Z,67.10
2023-01-31T08:41:29.388Z,66.91
2023-01-31T08:43:58.907Z,66.72
2023-01-31T08:46:30.805Z,66.35
2023-01-31T08:49:04.635Z,66.75
2023-01-31T08:51:34.177Z,66.62
2023-01-31T08:54:02.183Z,66.24
2023-01-31T08:56:30.448Z,66.31
2023-01-31T08:58:58.597Z,66.20
2023-01-31T09:01:26.773Z,66.34
2023-01-31T09:03:57.361Z,66.31
2023-01-31T09:06:27.675Z,66.17
2023-01-31T09:08:59.912Z,66.06
2023-01-31T09:11:29.083Z,66.21
2023-01-31T09:13:57.977Z,66.34
2023-01-31T09:16:26.328Z,66.16
2023-01-31T09:18:56.041Z,65.87
2023-01-31T09:21:24.382Z,65.97
2023-01-31T09:23:57.237Z,66.04
2023-01-31T09:26:25.406Z,66.04
2023-01-31T09:28:53.650Z,66.09
2023-01-31T09:31:22.152Z,65.94
2023-01-31T09:33:50.446Z,65.91
2023-01-31T09:36:20.417Z,65.92
2023-01-31T09:38:48.715Z,65.63
2023-01-31T09:41:17.480Z,65.63
2023-01-31T09:43:49.818Z,65.57
2023-01-31T09:46:19.547Z,65.83
2023-01-31T09:48:51.226Z,65.71
2023-01-31T09:51:19.364Z,65.67
2023-01-31T09:53:47.451Z,65.72
2023-01-31T09:56:34.673Z,65.71
2023-01-31T09:59:12.809Z,65.79
2023-01-31T10:01:47.913Z,66.10
2023-01-31T10:04:21.989Z,66.19
2023-01-31T10:07:01.644Z,66.17
2023-01-31T10:09:35.981Z,65.97
2023-01-31T10:12:06.468Z,66.14
2023-01-31T10:14:36.625Z,65.95
2023-01-31T10:18:07.858Z,66.09
2023-01-31T10:20:39.092Z,66.12
2023-01-31T10:23:15.131Z,66.00
2023-01-31T10:25:46.260Z,66.13
2023-01-31T10:28:30.396Z,66.06
2023-01-31T10:31:15.700Z,65.91
2023-01-31T10:33:49.807Z,66.00
2023-01-31T10:36:29.221Z,65.97
2023-01-31T10:39:07.968Z,66.01
2023-01-31T10:41:48.121Z,65.84
2023-01-31T10:44:31.389Z,66.30
2023-01-31T10:46:59.514Z,66.31
2023-01-31T10:49:27.666Z,66.21
2023-01-31T10:52:18.055Z,66.21
2023-01-31T10:54:55.194Z,66.41
2023-01-31T10:57:23.250Z,66.58
2023-01-31T10:59:55.347Z,66.79
2023-01-31T11:02:25.240Z,66.93
2023-01-31T11:04:57.971Z,66.86
2023-01-31T11:07:29.734Z,66.83
2023-01-31T11:09:58.630Z,66.91
2023-01-31T11:12:43.938Z,67.00
2023-01-31T11:15:17.677Z,67.08
2023-01-31T11:17:46.474Z,66.69
2023-01-31T11:20:24.443Z,66.51
2023-01-31T11:22:53.548Z,66.28
2023-01-31T11:25:22.674Z,66.19
2023-01-31T11:27:53.091Z,66.69
2023-01-31T11:30:36.330Z,66.53
2023-01-31T11:33:05.175Z,66.54
2023-01-31T11:35:34.550Z,66.64
2023-01-31T11:38:09.689Z,66.77
2023-01-31T11:40:38.756Z,66.85
2023-01-31T11:43:23.866Z,66.85
2023-01-31T11:45:59.403Z,66.94
2023-01-31T11:48:41.161Z,66.88
2023-01-31T11:51:09.111Z,67.09
2023-01-31T11:53:43.517Z,66.82
2023-01-31T11:56:23.125Z,67.05
2023-01-31T11:58:53.828Z,66.86
2023-01-31T12:01:23.113Z,66.62
2023-01-31T12:04:02.676Z,66.43
2023-01-31T12:06:39.270Z,66.59
2023-01-31T14:27:57.851Z,72.04
2023-01-31T14:30:27.369Z,71.83
2023-01-31T14:33:13.799Z,71.73
2023-01-31T14:36:19.721Z,71.53
2023-01-31T14:39:01.796Z,71.39
2023-01-31T14:41:33.071Z,71.08
2023-01-31T14:44:19.438Z,70.95
2023-01-31T14:47:18.444Z,70.53
2023-01-31T14:49:55.775Z,70.30
2023-01-31T14:52:48.419Z,70.17
2023-01-31T14:55:32.100Z,69.89
2023-01-31T14:58:01.413Z,69.75
2023-01-31T15:00:34.885Z,69.81
2023-01-31T15:03:26.584Z,69.64
2023-01-31T15:05:57.201Z,69.68
2023-01-31T15:08:25.190Z,69.42
2023-01-31T15:11:02.154Z,69.38
2023-01-31T15:13:38.301Z,69.26
2023-01-31T15:16:30.658Z,69.19
2023-01-31T15:19:08.545Z,69.07
2023-01-31T15:21:48.048Z,69.30
2023-01-31T15:24:26.187Z,69.08
2023-01-31T15:26:54.585Z,68.90
2023-01-31T15:29:25.074Z,69.11
2023-01-31T15:31:55.479Z,69.20
2023-01-31T15:34:27.747Z,69.46
2023-01-31T15:37:06.499Z,69.36
2023-01-31T15:39:44.217Z,69.68
2023-01-31T15:42:29.492Z,69.40
2023-01-31T15:45:22.011Z,69.39
2023-01-31T15:48:01.260Z,69.85
2023-01-31T15:50:33.332Z,69.48
2023-01-31T15:53:06.518Z,69.97
2023-01-31T15:55:35.480Z,69.91
2023-01-31T15:58:06.999Z,69.63
2023-01-31T16:00:37.395Z,69.96
2023-01-31T16:03:07.916Z,69.65
2023-01-31T16:05:37.913Z,69.63
2023-01-31T16:08:20.342Z,69.61
2023-01-31T16:10:48.618Z,69.58
2023-01-31T16:13:16.692Z,69.20
2023-01-31T16:15:44.742Z,69.37
2023-01-31T16:18:12.947Z,69.64
2023-01-31T16:20:51.219Z,69.47
2023-01-31T16:23:33.429Z,69.42
2023-01-31T16:26:08.994Z,69.41
2023-01-31T16:28:45.883Z,69.58
2023-01-31T16:31:16.586Z,69.41
2023-01-31T16:34:00.105Z,69.48
2023-01-31T16:36:49.111Z,69.32
2023-01-31T16:39:24.281Z,69.38
2023-01-31T16:41:52.652Z,69.04
2023-01-31T16:44:22.114Z,69.16
2023-01-31T16:46:50.695Z,69.18
2023-01-31T16:49:29.935Z,69.09
2023-01-31T16:52:24.764Z,69.09
2023-01-31T16:54:54.088Z,68.97
2023-01-31T16:57:23.127Z,69.18
2023-01-31T16:59:54.506Z,69.08
2023-01-31T17:02:25.761Z,69.03
2023-01-31T17:04:56.320Z,68.96
2023-01-31T17:07:27.182Z,68.99
2023-01-31T17:09:57.544Z,69.06
2023-01-31T17:12:29.803Z,69.12
2023-01-31T17:15:01.621Z,68.96
2023-01-31T17:17:34.808Z,69.06
2023-01-31T17:20:03.082Z,69.19
2023-01-31T17:22:32.319Z,69.21
2023-01-31T17:25:00.448Z,69.19
2023-01-31T17:27:28.451Z,69.08
2023-01-31T17:29:56.559Z,69.15
2023-01-31T17:32:24.539Z,69.08
2023-01-31T17:34:52.726Z,69.13
2023-01-31T17:37:31.193Z,69.13
2023-01-31T17:39:59.763Z,69.42
2023-01-31T17:42:27.839Z,69.34
2023-01-31T17:44:56.057Z,69.33
2023-01-31T17:47:25.316Z,69.15
2023-01-31T17:50:00.018Z,69.07
2023-01-31T17:52:28.207Z,69.07
2023-01-31T17:54:56.295Z,69.09
2023-01-31T17:57:24.458Z,69.14
2023-01-31T17:59:52.528Z,69.12
2023-01-31T18:02:20.796Z,69.18
2023-01-31T18:04:48.806Z,69.20
2023-01-31T18:07:17.062Z,69.27
2023-01-31T20:20:09.317Z,69.83
2023-01-31T20:22:36.734Z,69.37
2023-01-31T20:25:04.745Z,69.21
2023-01-31T20:27:34.756Z,69.30
2023-01-31T20:30:01.807Z,69.14
2023-01-31T20:32:29.189Z,69.32
2023-01-31T20:34:56.608Z,69.29
2023-01-31T20:37:23.863Z,69.41
2023-01-31T20:39:51.113Z,69.57
2023-01-31T20:42:17.752Z,69.52
2023-01-31T20:44:44.333Z,69.64
2023-01-31T20:47:10.992Z,69.82
2023-01-31T20:49:37.766Z,69.78
2023-01-31T20:52:04.888Z,69.76
2023-01-31T20:54:33.396Z,69.91
2023-01-31T20:57:00.242Z,69.76
2023-01-31T20:59:27.801Z,69.82
2023-01-31T21:01:54.448Z,69.90
2023-01-31T21:04:21.008Z,69.81
2023-01-31T21:06:48.915Z,69.60
2023-01-31T21:09:15.770Z,69.69
2023-01-31T21:11:42.641Z,69.55
2023-01-31T21:14:09.569Z,69.49
2023-01-31T21:16:36.169Z,69.51
2023-01-31T21:19:02.793Z,69.32
2023-01-31T21:21:29.810Z,69.12
2023-01-31T21:23:56.777Z,69.24
2023-01-31T21:26:25.681Z,69.22
2023-01-31T21:28:53.770Z,69.19
2023-01-31T21:31:20.596Z,69.29
2023-01-31T21:33:49.988Z,69.31
2023-01-31T21:36:18.547Z,69.35
2023-01-31T21:38:45.231Z,69.63
2023-01-31T21:41:30.872Z,69.45
2023-01-31T21:43:57.645Z,69.44
2023-01-31T21:46:24.893Z,69.57
2023-01-31T21:48:51.991Z,69.42
2023-01-31T21:51:19.909Z,69.47
2023-01-31T21:53:46.445Z,69.45
2023-01-31T21:56:20.213Z,69.53
2023-01-31T21:58:46.991Z,69.56
2023-01-31T22:01:20.879Z,69.47
2023-01-31T22:03:48.975Z,69.45
2023-01-31T22:06:20.429Z,69.50
2023-01-31T22:08:55.623Z,69.85
2023-01-31T22:11:22.481Z,69.88
2023-01-31T22:13:52.198Z,69.74
2023-01-31T22:16:20.885Z,69.84
2023-01-31T22:18:47.693Z,69.90
2023-01-31T22:21:19.077Z,69.60
2023-01-31T22:23:47.482Z,69.78
2023-01-31T22:26:19.121Z,69.86
2023-01-31T22:28:46.422Z,69.81
2023-01-31T22:31:13.181Z,69.62
2023-01-31T22:33:40.890Z,69.74
2023-01-31T22:36:08.954Z,69.63
2023-01-31T22:38:35.839Z,69.79
2023-01-31T22:41:04.295Z,69.65
2023-01-31T22:43:35.873Z,69.61
2023-01-31T22:46:02.984Z,69.69
2023-01-31T22:48:29.869Z,69.77
2023-01-31T22:50:57.954Z,69.66
2023-01-31T22:53:25.091Z,69.58
2023-01-31T22:55:52.393Z,69.53
2023-01-31T22:58:19.489Z,69.59
2023-01-31T23:00:48.339Z,69.59
2023-01-31T23:03:15.001Z,69.64
2023-01-31T23:05:44.582Z,69.44
2023-01-31T23:08:12.566Z,69.59
2023-01-31T23:10:39.948Z,69.79
2023-01-31T23:13:06.681Z,69.54
2023-01-31T23:15:33.769Z,69.69
2023-01-31T23:18:20.816Z,69.76
2023-01-31T23:20:47.632Z,69.98
2023-01-31T23:23:14.212Z,70.02
2023-01-31T23:25:40.967Z,70.08
2023-01-31T23:28:07.607Z,70.16
2023-01-31T23:30:34.542Z,70.30
2023-01-31T23:33:02.059Z,70.35
2023-01-31T23:35:31.478Z,70.33
2023-01-31T23:37:58.151Z,70.30
2023-01-31T23:40:24.725Z,70.33
2023-01-31T23:42:52.309Z,70.50
2023-01-31T23:45:19.295Z,70.72
2023-01-31T23:47:45.956Z,70.68
2023-01-31T23:50:12.681Z,70.86
2023-01-31T23:52:42.196Z,70.58
2023-01-31T23:55:09.583Z,70.75
2023-01-31T23:57:36.364Z,70.50
